Time;durP1;ratioP1;P1;durP2;ratioP2;P2;SDS_P1;SDS_P2;PMS_P1;PMS_P2;Temp;Humidity;BMP_temperature;BMP_pressure;BME280_temperature;BME280_humidity;BME280_pressure;Samples;Min_cycle;Max_cycle;Signal;HPM_P1;HPM_P2
2023/07/08 00:00:09;;;;;;;9.10;8.13;;;;;24.30;100654.00;;;;2057908;28;22057;-69
2023/07/08 00:01:14;;;;;;;8.52;7.47;;;;;24.30;100652.00;;;;2055503;28;20208;-69
2023/07/08 00:02:15;;;;;;;8.50;7.35;;;;;24.30;100654.00;;;;2047114;28;20223;-69
2023/07/08 00:03:15;;;;;;;8.77;7.47;;;;;24.30;100652.00;;;;2046350;28;20215;-69
2023/07/08 00:04:16;;;;;;;8.70;7.70;;;;;24.30;100650.00;;;;2065306;28;20268;-69
2023/07/08 00:05:18;;;;;;;7.83;6.97;;;;;24.30;100649.00;;;;2054747;28;20845;-69
2023/07/08 00:06:21;;;;;;;8.73;7.30;;;;;24.40;100652.00;;;;2053315;28;20219;-69
2023/07/08 00:07:22;;;;;;;7.25;6.55;;;;;24.40;100651.00;;;;2047404;28;20212;-69
2023/07/08 00:08:23;;;;;;;9.50;7.13;;;;;24.40;100654.00;;;;2038323;28;20219;-69
2023/07/08 00:09:23;;;;;;;8.37;7.57;;;;;24.40;100643.00;;;;2052646;28;20230;-69
2023/07/08 00:10:24;;;;;;;7.67;6.87;;;;;24.30;100647.00;;;;2055786;28;20235;-69
2023/07/08 00:11:25;;;;;;;8.85;7.78;;;;;24.30;100623.00;;;;2069262;28;20217;-69
2023/07/08 00:12:25;;;;;;;7.40;6.70;;;;;24.40;100647.00;;;;2056819;28;20218;-69
2023/07/08 00:13:25;;;;;;;7.87;6.93;;;;;24.40;100647.00;;;;2040600;28;20224;-69
2023/07/08 00:14:26;;;;;;;7.37;6.67;;;;;24.30;100640.00;;;;2064397;28;20229;-69
2023/07/08 00:15:27;;;;;;;7.27;6.57;;;;;24.30;100649.00;;;;2057745;28;20208;-69
2023/07/08 00:16:28;;;;;;;7.70;6.93;;;;;24.30;100646.00;;;;2054056;28;20212;-69
2023/07/08 00:17:28;;;;;;;7.60;6.83;;;;;24.30;100650.00;;;;2047806;28;20212;-69
2023/07/08 00:18:28;;;;;;;7.47;6.67;;;;;24.30;100651.00;;;;2039911;28;20218;-69
2023/07/08 00:19:29;;;;;;;8.40;6.80;;;;;24.40;100644.00;;;;2067136;28;20219;-69
2023/07/08 00:20:36;;;;;;;7.53;6.83;;;;;24.30;100642.00;;;;2059973;28;20218;-69
2023/07/08 00:21:37;;;;;;;7.50;6.35;;;;;24.30;100640.00;;;;2063374;28;20218;-69
2023/07/08 00:22:38;;;;;;;7.57;6.80;;;;;24.30;100637.00;;;;2068344;28;20210;-69
2023/07/08 00:23:38;;;;;;;6.95;6.35;;;;;24.30;100633.00;;;;2042344;28;20679;-69
2023/07/08 00:24:40;;;;;;;6.67;5.80;;;;;24.30;100639.00;;;;2062638;28;20215;-69
2023/07/08 00:25:41;;;;;;;6.75;6.10;;;;;24.40;100635.00;;;;2058332;28;20211;-69
2023/07/08 00:26:41;;;;;;;6.93;6.23;;;;;24.40;100641.00;;;;2056186;28;20337;-69
2023/07/08 00:27:41;;;;;;;8.20;6.80;;;;;24.40;100637.00;;;;2063340;28;20210;-69
2023/07/08 00:28:42;;;;;;;8.60;6.30;;;;;24.40;100631.00;;;;2058951;28;20206;-69
2023/07/08 00:29:42;;;;;;;7.10;6.40;;;;;24.40;100632.00;;;;2055761;28;20219;-69
2023/07/08 00:30:43;;;;;;;8.20;6.30;;;;;24.40;100629.00;;;;2060527;28;20211;-69
2023/07/08 00:31:43;;;;;;;7.30;5.87;;;;;24.40;100631.00;;;;2056326;28;20215;-69
2023/07/08 00:32:44;;;;;;;8.03;6.07;;;;;24.30;100635.00;;;;2066900;28;20228;-69
2023/07/08 00:33:44;;;;;;;6.90;6.20;;;;;24.30;100630.00;;;;2050134;28;20212;-69
2023/07/08 00:34:44;;;;;;;6.37;5.67;;;;;24.30;100628.00;;;;2056481;28;20238;-69
2023/07/08 00:35:45;;;;;;;6.70;6.00;;;;;24.30;100634.00;;;;2062829;28;20215;-69
2023/07/08 00:36:45;;;;;;;6.43;5.80;;;;;24.30;100626.00;;;;2057719;28;20215;-69
2023/07/08 00:37:46;;;;;;;7.37;6.27;;;;;24.30;100624.00;;;;2065216;28;20215;-69
2023/07/08 00:38:46;;;;;;;5.88;5.25;;;;;24.30;100626.00;;;;2052510;28;20210;-69
2023/07/08 00:39:47;;;;;;;6.57;5.87;;;;;24.30;100622.00;;;;2055056;28;20243;-69
2023/07/08 00:40:53;;;;;;;6.13;5.50;;;;;24.40;100631.00;;;;2061624;28;20221;-69
2023/07/08 00:41:54;;;;;;;6.80;5.63;;;;;24.30;100625.00;;;;2058853;28;20226;-69
2023/07/08 00:42:54;;;;;;;7.00;6.30;;;;;24.30;100622.00;;;;2051095;28;20269;-69
2023/07/08 00:43:55;;;;;;;8.37;5.00;;;;;24.30;100626.00;;;;2059906;28;20748;-69
2023/07/08 00:44:56;;;;;;;6.10;5.50;;;;;24.30;100632.00;;;;2033513;29;20242;-69
2023/07/08 00:46:11;;;;;;;7.57;6.10;;;;;24.30;100627.00;;;;2039663;29;20888;-69
2023/07/08 00:47:12;;;;;;;7.88;6.25;;;;;24.30;100627.00;;;;2046127;28;20211;-69
2023/07/08 00:48:23;;;;;;;6.93;5.40;;;;;24.30;100634.00;;;;2034166;28;20227;-69
2023/07/08 00:49:25;;;;;;;6.63;4.93;;;;;24.30;100631.00;;;;2052602;28;20216;-69
2023/07/08 00:50:25;;;;;;;7.25;5.55;;;;;24.30;100632.00;;;;2049967;28;20221;-69
2023/07/08 00:51:26;;;;;;;6.43;5.70;;;;;24.30;100631.00;;;;2041683;28;20217;-69
2023/07/08 00:52:27;;;;;;;6.53;5.80;;;;;24.30;100631.00;;;;2055471;28;20220;-69
2023/07/08 00:53:28;;;;;;;6.03;5.47;;;;;24.30;100632.00;;;;2048195;28;20210;-69
2023/07/08 00:54:29;;;;;;;6.10;5.43;;;;;24.30;100626.00;;;;2048115;28;20244;-69
2023/07/08 00:55:29;;;;;;;5.80;5.30;;;;;24.30;100628.00;;;;2059016;28;20691;-69
2023/07/08 00:56:33;;;;;;;6.40;5.80;;;;;24.30;100627.00;;;;2060907;28;21053;-68
2023/07/08 00:57:35;;;;;;;7.95;5.57;;;;;24.30;100614.00;;;;2064155;28;20257;-68
2023/07/08 00:58:39;;;;;;;6.60;5.57;;;;;24.30;100623.00;;;;2044979;28;20212;-68
2023/07/08 00:59:44;;;;;;;7.20;5.95;;;;;24.30;100624.00;;;;2053629;28;20218;-68
2023/07/08 01:00:44;;;;;;;6.03;5.30;;;;;24.30;100627.00;;;;2047870;28;20219;-68
2023/07/08 01:01:44;;;;;;;7.00;6.00;;;;;24.30;100625.00;;;;2053889;28;20212;-68
2023/07/08 01:02:48;;;;;;;5.70;5.10;;;;;24.30;100619.00;;;;2048069;28;20717;-69
2023/07/08 01:04:06;;;;;;;6.50;5.85;;;;;24.30;100618.00;;;;2038119;28;20295;-69
2023/07/08 01:05:10;;;;;;;6.70;5.40;;;;;24.30;100619.00;;;;2054989;28;20246;-69
2023/07/08 01:06:10;;;;;;;5.82;4.85;;;;;24.30;100601.00;;;;2051660;28;20696;-69
2023/07/08 01:07:11;;;;;;;5.23;4.70;;;;;24.30;100618.00;;;;2046002;28;20209;-69
2023/07/08 01:08:11;;;;;;;6.63;5.43;;;;;24.30;100613.00;;;;2034612;28;20990;-69
2023/07/08 01:09:12;;;;;;;6.20;5.60;;;;;24.30;100601.00;;;;2058051;28;21247;-69
2023/07/08 01:10:16;;;;;;;6.32;4.70;;;;;24.30;100623.00;;;;2055363;28;20746;-69
2023/07/08 01:11:16;;;;;;;5.72;5.15;;;;;24.30;100628.00;;;;2045868;28;20221;-69
2023/07/08 01:12:19;;;;;;;6.10;5.03;;;;;24.30;100616.00;;;;2055940;28;20211;-69
2023/07/08 01:13:19;;;;;;;5.95;5.35;;;;;24.30;100613.00;;;;2050887;28;20238;-69
2023/07/08 01:14:22;;;;;;;5.33;4.83;;;;;24.30;100612.00;;;;2046985;28;20267;-69
2023/07/08 01:15:24;;;;;;;5.18;4.68;;;;;24.30;100618.00;;;;2047773;28;20299;-69
2023/07/08 01:16:24;;;;;;;5.30;4.80;;;;;24.30;100612.00;;;;2045575;28;20590;-69
2023/07/08 01:17:24;;;;;;;5.30;4.80;;;;;24.30;100610.00;;;;2055248;28;20239;-69
2023/07/08 01:18:25;;;;;;;5.93;5.17;;;;;24.30;100609.00;;;;2052548;28;20294;-69
2023/07/08 01:19:32;;;;;;;5.80;5.27;;;;;24.20;100582.00;;;;2060648;28;20306;-69
2023/07/08 01:20:32;;;;;;;6.40;5.63;;;;;24.30;100609.00;;;;2038037;28;20221;-69
2023/07/08 01:21:44;;;;;;;7.13;5.60;;;;;24.30;100612.00;;;;2048692;28;20686;-69
2023/07/08 01:22:44;;;;;;;5.25;4.60;;;;;24.20;100615.00;;;;2063735;28;20288;-69
2023/07/08 01:23:44;;;;;;;5.90;5.30;;;;;24.20;100604.00;;;;2039355;28;20217;-69
2023/07/08 01:24:45;;;;;;;5.17;4.67;;;;;24.20;100597.00;;;;2053386;28;20223;-69
2023/07/08 01:25:45;;;;;;;6.30;4.93;;;;;24.20;100607.00;;;;2051227;28;20196;-69
2023/07/08 01:26:45;;;;;;;6.30;5.40;;;;;24.20;100580.00;;;;2047495;28;20200;-69
2023/07/08 01:27:47;;;;;;;5.90;5.30;;;;;24.20;100609.00;;;;2051918;28;20636;-69
2023/07/08 01:28:47;;;;;;;5.25;4.75;;;;;24.20;100598.00;;;;2037637;28;20298;-69
2023/07/08 01:29:48;;;;;;;5.70;4.93;;;;;24.20;100603.00;;;;2054666;28;20215;-69
2023/07/08 01:30:48;;;;;;;6.47;5.20;;;;;24.20;100607.00;;;;2053383;28;20222;-69
2023/07/08 01:31:48;;;;;;;5.83;4.93;;;;;24.20;100599.00;;;;2047934;28;20238;-69
2023/07/08 01:32:50;;;;;;;5.10;4.60;;;;;24.20;100603.00;;;;2062259;28;20210;-69
2023/07/08 01:33:53;;;;;;;5.43;4.78;;;;;24.20;100598.00;;;;2045203;28;20238;-69
2023/07/08 01:35:03;;;;;;;6.45;5.10;;;;;24.20;100568.00;;;;2055540;28;20216;-69
2023/07/08 01:36:03;;;;;;;5.78;5.18;;;;;24.20;100596.00;;;;2052147;28;20305;-69
2023/07/08 01:37:04;;;;;;;5.13;4.63;;;;;24.20;100591.00;;;;2040639;28;20724;-69
2023/07/08 01:38:05;;;;;;;5.57;5.07;;;;;24.20;100573.00;;;;2027887;29;20218;-69
2023/07/08 01:39:05;;;;;;;6.15;4.82;;;;;24.20;100596.00;;;;2045946;28;21004;-69
2023/07/08 01:40:27;;;;;;;5.73;5.23;;;;;24.20;100593.00;;;;2056430;28;20231;-69
2023/07/08 01:41:27;;;;;;;4.80;4.30;;;;;24.20;100598.00;;;;2065954;28;20225;-69
2023/07/08 01:42:27;;;;;;;4.73;4.30;;;;;24.20;100601.00;;;;2063319;28;20225;-69
2023/07/08 01:43:28;;;;;;;4.80;4.33;;;;;24.20;100594.00;;;;2050500;28;20242;-69
2023/07/08 01:44:32;;;;;;;5.73;5.23;;;;;24.20;100600.00;;;;2058988;28;20219;-68
2023/07/08 01:45:34;;;;;;;5.15;4.63;;;;;24.20;100588.00;;;;2059483;28;20219;-68
2023/07/08 01:46:34;;;;;;;4.88;4.13;;;;;24.20;100600.00;;;;2058224;28;20211;-68
2023/07/08 01:47:35;;;;;;;5.30;4.80;;;;;24.20;100597.00;;;;2062811;28;20308;-68
2023/07/08 01:48:36;;;;;;;6.13;4.97;;;;;24.20;100592.00;;;;2046951;28;20246;-68
2023/07/08 01:49:37;;;;;;;5.35;4.85;;;;;24.20;100592.00;;;;2054215;28;20654;-68
2023/07/08 01:50:41;;;;;;;5.07;4.10;;;;;24.20;100592.00;;;;2061136;28;20221;-68
2023/07/08 01:51:41;;;;;;;4.47;4.07;;;;;24.20;100593.00;;;;2046363;28;20634;-68
2023/07/08 01:52:42;;;;;;;5.03;4.13;;;;;24.20;100590.00;;;;2046262;28;20247;-68
2023/07/08 01:53:42;;;;;;;4.83;4.23;;;;;24.20;100589.00;;;;2031920;28;20212;-68
2023/07/08 01:54:42;;;;;;;5.63;5.00;;;;;24.20;100597.00;;;;2045651;28;20212;-68
2023/07/08 01:55:43;;;;;;;5.70;5.20;;;;;24.20;100592.00;;;;2046412;28;20295;-68
2023/07/08 01:56:43;;;;;;;4.60;3.97;;;;;24.00;100596.00;;;;2062042;28;20243;-68
2023/07/08 01:57:43;;;;;;;5.10;4.60;;;;;24.20;100592.00;;;;2053592;28;20219;-68
2023/07/08 01:58:44;;;;;;;4.37;3.97;;;;;24.20;100591.00;;;;2050555;28;20667;-69
2023/07/08 01:59:44;;;;;;;4.87;4.00;;;;;24.20;100591.00;;;;2062938;28;20206;-69
2023/07/08 02:00:44;;;;;;;4.47;4.07;;;;;24.20;100587.00;;;;2064090;28;20211;-69
2023/07/08 02:01:47;;;;;;;4.80;3.97;;;;;24.20;100582.00;;;;2062881;28;20779;-69
2023/07/08 02:02:48;;;;;;;5.22;4.10;;;;;24.20;100587.00;;;;2065301;28;20214;-69
2023/07/08 02:03:48;;;;;;;5.90;4.70;;;;;24.20;100587.00;;;;2051951;28;20265;-69
2023/07/08 02:04:48;;;;;;;4.43;4.03;;;;;24.20;100580.00;;;;2060101;28;21013;-69
2023/07/08 02:05:49;;;;;;;5.10;4.20;;;;;24.20;100575.00;;;;2055725;28;20247;-69
2023/07/08 02:06:53;;;;;;;4.87;4.37;;;;;24.20;100578.00;;;;2057711;28;20258;-69
2023/07/08 02:07:55;;;;;;;4.50;4.10;;;;;24.20;100578.00;;;;2052520;28;20230;-69
2023/07/08 02:08:58;;;;;;;5.00;4.18;;;;;24.20;100574.00;;;;2055689;28;20215;-69
2023/07/08 02:09:58;;;;;;;4.55;3.97;;;;;24.20;100576.00;;;;2067743;28;20233;-69
2023/07/08 02:10:59;;;;;;;4.50;4.10;;;;;24.20;100572.00;;;;2058020;28;20578;-69
2023/07/08 02:11:59;;;;;;;5.67;4.33;;;;;24.20;100572.00;;;;2060023;28;20629;-69
2023/07/08 02:12:59;;;;;;;5.60;4.80;;;;;24.20;100564.00;;;;2039544;28;20219;-69
2023/07/08 02:14:00;;;;;;;4.30;3.90;;;;;24.20;100568.00;;;;2043730;28;20209;-69
2023/07/08 02:15:01;;;;;;;6.20;4.00;;;;;24.20;100567.00;;;;2058526;28;20235;-69
2023/07/08 02:16:01;;;;;;;4.90;4.37;;;;;24.20;100563.00;;;;2055537;28;20454;-69
2023/07/08 02:17:04;;;;;;;4.80;4.40;;;;;24.20;100560.00;;;;2052176;28;20684;-69
2023/07/08 02:18:05;;;;;;;4.80;4.30;;;;;24.20;100559.00;;;;2045438;28;20227;-68
2023/07/08 02:19:06;;;;;;;4.47;4.07;;;;;24.20;100564.00;;;;2060331;28;20207;-68
2023/07/08 02:20:08;;;;;;;4.60;4.17;;;;;24.20;100562.00;;;;2051388;28;20203;-68
2023/07/08 02:21:08;;;;;;;5.32;4.10;;;;;24.20;100571.00;;;;2058753;28;20222;-68
2023/07/08 02:22:09;;;;;;;4.73;4.10;;;;;24.20;100566.00;;;;2059833;28;20252;-68
2023/07/08 02:23:09;;;;;;;4.63;4.23;;;;;24.20;100576.00;;;;2057779;28;20230;-68
2023/07/08 02:24:10;;;;;;;3.80;3.50;;;;;24.20;100566.00;;;;2060290;28;20200;-68
2023/07/08 02:25:10;;;;;;;4.53;4.13;;;;;24.20;100563.00;;;;2058505;28;20199;-68
2023/07/08 02:26:11;;;;;;;4.40;4.00;;;;;24.20;100560.00;;;;2062726;28;20710;-68
2023/07/08 02:27:11;;;;;;;5.33;4.20;;;;;24.20;100563.00;;;;2057301;28;20264;-68
2023/07/08 02:28:11;;;;;;;4.43;3.90;;;;;24.20;100558.00;;;;2051514;28;20216;-68
2023/07/08 02:29:12;;;;;;;4.50;4.10;;;;;24.20;100556.00;;;;2057818;28;20269;-68
2023/07/08 02:30:12;;;;;;;4.10;3.70;;;;;24.20;100550.00;;;;2058264;28;20202;-68
2023/07/08 02:31:12;;;;;;;4.87;4.37;;;;;24.20;100552.00;;;;2059965;28;20585;-68
2023/07/08 02:32:13;;;;;;;3.97;3.57;;;;;24.20;100531.00;;;;2058074;28;20593;-68
2023/07/08 02:33:14;;;;;;;4.30;3.90;;;;;24.20;100543.00;;;;2052260;28;20959;-68
2023/07/08 02:34:14;;;;;;;4.05;3.65;;;;;24.20;100556.00;;;;2050954;28;20216;-68
2023/07/08 02:35:15;;;;;;;4.47;4.07;;;;;24.20;100554.00;;;;2052707;28;20201;-68
2023/07/08 02:36:15;;;;;;;4.00;3.60;;;;;24.20;100556.00;;;;2067755;28;20199;-68
2023/07/08 02:37:15;;;;;;;4.50;3.67;;;;;24.20;100551.00;;;;2063544;28;20218;-68
2023/07/08 02:38:16;;;;;;;4.63;3.70;;;;;24.20;100556.00;;;;2050028;28;20267;-68
2023/07/08 02:39:16;;;;;;;5.70;3.90;;;;;24.20;100555.00;;;;2063412;28;20203;-68
2023/07/08 02:40:16;;;;;;;4.33;3.97;;;;;24.20;100555.00;;;;2065318;28;20202;-68
2023/07/08 02:41:17;;;;;;;4.20;3.80;;;;;24.20;100559.00;;;;2063277;28;20203;-68
2023/07/08 02:42:17;;;;;;;4.40;3.57;;;;;24.20;100555.00;;;;2061860;28;20261;-68
2023/07/08 02:43:17;;;;;;;6.63;3.73;;;;;24.20;100552.00;;;;2050305;28;20747;-68
2023/07/08 02:44:18;;;;;;;3.97;3.57;;;;;24.20;100552.00;;;;2061873;28;20238;-68
2023/07/08 02:45:18;;;;;;;4.10;3.70;;;;;24.20;100544.00;;;;2062969;28;20209;-68
2023/07/08 02:46:18;;;;;;;4.60;3.60;;;;;24.20;100557.00;;;;2050699;28;20247;-68
2023/07/08 02:47:19;;;;;;;3.80;3.50;;;;;24.20;100542.00;;;;2049686;28;20216;-69
2023/07/08 02:48:19;;;;;;;5.53;3.63;;;;;24.20;100546.00;;;;2051250;28;20242;-69
2023/07/08 02:49:20;;;;;;;4.40;4.00;;;;;24.20;100548.00;;;;2053327;28;20224;-69
2023/07/08 02:50:20;;;;;;;4.20;3.80;;;;;24.20;100556.00;;;;2052934;28;20206;-69
2023/07/08 02:51:20;;;;;;;3.80;3.50;;;;;24.20;100557.00;;;;2059649;28;20327;-69
2023/07/08 02:52:21;;;;;;;3.80;3.40;;;;;24.20;100559.00;;;;2058804;28;20235;-69
2023/07/08 02:53:21;;;;;;;3.73;3.43;;;;;24.20;100560.00;;;;2049849;28;20215;-69
2023/07/08 02:54:21;;;;;;;4.60;4.20;;;;;24.20;100553.00;;;;2060544;28;20237;-69
2023/07/08 02:55:22;;;;;;;3.23;2.93;;;;;24.20;100562.00;;;;2062941;28;20223;-68
2023/07/08 02:56:22;;;;;;;3.87;3.43;;;;;24.20;100557.00;;;;2061996;28;20222;-68
2023/07/08 02:57:23;;;;;;;4.83;3.33;;;;;24.20;100563.00;;;;2058676;28;20219;-68
2023/07/08 02:58:23;;;;;;;3.37;3.07;;;;;24.20;100563.00;;;;2048819;28;20219;-68
2023/07/08 02:59:24;;;;;;;4.00;3.70;;;;;24.20;100561.00;;;;2062097;28;20564;-68
2023/07/08 03:00:24;;;;;;;4.97;3.57;;;;;24.20;100556.00;;;;2063101;28;20260;-68
2023/07/08 03:01:26;;;;;;;3.90;3.60;;;;;24.20;100553.00;;;;2062364;28;20277;-68
2023/07/08 03:02:26;;;;;;;4.07;3.50;;;;;24.20;100553.00;;;;2058135;28;20294;-68
2023/07/08 03:03:29;;;;;;;3.33;3.03;;;;;24.20;100558.00;;;;2049012;28;20215;-68
2023/07/08 03:04:30;;;;;;;3.70;3.35;;;;;24.20;100556.00;;;;2057700;28;20215;-68
2023/07/08 03:05:30;;;;;;;3.50;3.20;;;;;24.20;100562.00;;;;2060138;28;20298;-68
2023/07/08 03:06:32;;;;;;;4.17;3.37;;;;;24.20;100555.00;;;;2056675;28;20219;-68
2023/07/08 03:07:33;;;;;;;3.63;3.33;;;;;24.20;100560.00;;;;2057512;28;20460;-68
2023/07/08 03:08:33;;;;;;;6.30;3.47;;;;;24.20;100557.00;;;;2053054;28;20230;-68
2023/07/08 03:09:33;;;;;;;3.83;3.43;;;;;24.20;100560.00;;;;2062705;28;20221;-68
2023/07/08 03:10:34;;;;;;;3.93;3.53;;;;;24.20;100557.00;;;;2062407;28;20289;-68
2023/07/08 03:11:35;;;;;;;4.07;3.67;;;;;24.20;100558.00;;;;2057106;28;20246;-68
2023/07/08 03:12:35;;;;;;;3.57;3.27;;;;;24.20;100560.00;;;;2060132;28;20227;-68
2023/07/08 03:13:35;;;;;;;3.73;3.40;;;;;24.20;100561.00;;;;2046743;28;20211;-68
2023/07/08 03:14:36;;;;;;;3.63;3.33;;;;;24.20;100559.00;;;;2063680;28;20234;-68
2023/07/08 03:15:36;;;;;;;3.90;3.50;;;;;24.20;100565.00;;;;2061708;28;20222;-68
2023/07/08 03:16:36;;;;;;;4.00;3.67;;;;;24.20;100558.00;;;;2058282;28;20590;-68
2023/07/08 03:17:37;;;;;;;3.30;3.00;;;;;24.20;100557.00;;;;2059248;28;20211;-68
2023/07/08 03:18:45;;;;;;;5.53;3.83;;;;;24.20;100554.00;;;;2046344;28;20699;-68
2023/07/08 03:19:45;;;;;;;3.78;3.45;;;;;24.20;100559.00;;;;2061874;28;20738;-68
2023/07/08 03:20:47;;;;;;;3.93;3.53;;;;;24.20;100554.00;;;;2065992;28;20222;-68
2023/07/08 03:21:47;;;;;;;3.58;3.28;;;;;24.20;100552.00;;;;2038932;28;20205;-68
2023/07/08 03:22:48;;;;;;;3.97;3.57;;;;;24.10;100555.00;;;;2038790;28;20209;-68
2023/07/08 03:23:49;;;;;;;4.07;3.57;;;;;24.20;100553.00;;;;2047447;28;20242;-68
2023/07/08 03:24:49;;;;;;;3.47;3.17;;;;;24.20;100560.00;;;;2057897;28;20581;-68
2023/07/08 03:25:50;;;;;;;3.87;3.47;;;;;24.10;100549.00;;;;2062921;28;20210;-68
2023/07/08 03:26:54;;;;;;;3.90;3.30;;;;;24.20;100547.00;;;;2047077;28;20683;-68
2023/07/08 03:27:55;;;;;;;3.55;3.25;;;;;24.20;100555.00;;;;2044563;28;20314;-69
2023/07/08 03:28:55;;;;;;;3.73;2.87;;;;;24.20;100560.00;;;;2059139;28;20221;-69
2023/07/08 03:29:55;;;;;;;3.50;3.20;;;;;24.10;100553.00;;;;2060287;28;20471;-69
2023/07/08 03:30:56;;;;;;;6.10;2.90;;;;;24.10;100555.00;;;;2065216;28;20225;-69
2023/07/08 03:31:56;;;;;;;4.03;3.30;;;;;24.10;100556.00;;;;2057630;28;20223;-69
2023/07/08 03:32:57;;;;;;;3.93;3.53;;;;;24.20;100553.00;;;;2050784;28;20242;-69
2023/07/08 03:33:57;;;;;;;3.63;3.20;;;;;24.20;100552.00;;;;2062020;28;20222;-69
2023/07/08 03:34:57;;;;;;;3.50;3.20;;;;;24.20;100542.00;;;;2061485;28;20285;-69
2023/07/08 03:35:58;;;;;;;3.27;2.97;;;;;24.20;100550.00;;;;2067100;28;20222;-69
2023/07/08 03:36:58;;;;;;;3.53;3.23;;;;;24.20;100545.00;;;;2056755;28;20219;-69
2023/07/08 03:37:58;;;;;;;4.40;3.30;;;;;24.10;100544.00;;;;2054461;28;20226;-69
2023/07/08 03:39:00;;;;;;;3.17;2.90;;;;;24.20;100554.00;;;;2066610;28;20218;-69
2023/07/08 03:40:00;;;;;;;3.15;2.83;;;;;24.20;100548.00;;;;2070587;28;20698;-69
2023/07/08 03:41:00;;;;;;;4.07;3.57;;;;;24.20;100559.00;;;;2071223;28;20267;-69
2023/07/08 03:42:01;;;;;;;3.53;3.23;;;;;24.20;100554.00;;;;2063900;28;20215;-69
2023/07/08 03:43:01;;;;;;;3.27;2.97;;;;;24.10;100550.00;;;;2050709;28;20702;-69
2023/07/08 03:44:01;;;;;;;3.47;3.17;;;;;24.20;100552.00;;;;2056975;28;20218;-69
2023/07/08 03:45:02;;;;;;;3.40;3.10;;;;;24.10;100553.00;;;;2064903;28;20211;-69
2023/07/08 03:46:02;;;;;;;4.63;3.13;;;;;24.10;100554.00;;;;2056068;28;20211;-69
2023/07/08 03:47:03;;;;;;;3.53;3.03;;;;;24.10;100558.00;;;;2056849;28;20310;-69
2023/07/08 03:48:03;;;;;;;3.93;2.97;;;;;24.20;100552.00;;;;2048024;28;20216;-69
2023/07/08 03:49:03;;;;;;;3.63;3.20;;;;;24.20;100554.00;;;;2057310;28;20238;-69
2023/07/08 03:50:04;;;;;;;6.10;3.00;;;;;24.20;100551.00;;;;2050789;28;20211;-69
2023/07/08 03:51:12;;;;;;;4.25;3.00;;;;;24.10;100548.00;;;;2061016;28;20217;-69
2023/07/08 03:52:15;;;;;;;3.22;3.03;;;;;24.20;100525.00;;;;2046044;28;20216;-69
2023/07/08 03:53:16;;;;;;;3.55;2.90;;;;;24.10;100555.00;;;;2041412;28;20238;-69
2023/07/08 03:54:17;;;;;;;5.33;3.10;;;;;24.20;100553.00;;;;2055835;28;20216;-69
2023/07/08 03:55:18;;;;;;;4.30;3.20;;;;;24.20;100561.00;;;;2065183;28;20624;-69
2023/07/08 03:56:18;;;;;;;3.13;2.83;;;;;24.20;100552.00;;;;2061949;28;20211;-69
2023/07/08 03:57:18;;;;;;;4.23;3.20;;;;;24.20;100554.00;;;;2056313;28;20224;-69
2023/07/08 03:58:19;;;;;;;3.40;3.10;;;;;24.20;100556.00;;;;2049953;28;20235;-69
2023/07/08 03:59:19;;;;;;;3.97;2.93;;;;;24.20;100555.00;;;;2052568;28;20212;-69
2023/07/08 04:00:19;;;;;;;3.20;2.90;;;;;24.10;100550.00;;;;2059380;28;20227;-69
2023/07/08 04:01:21;;;;;;;3.70;3.10;;;;;24.10;100552.00;;;;2063702;28;20311;-68
2023/07/08 04:02:21;;;;;;;3.63;2.95;;;;;24.10;100559.00;;;;2062836;28;20780;-68
2023/07/08 04:03:22;;;;;;;3.87;3.27;;;;;24.10;100557.00;;;;2049124;28;20227;-68
2023/07/08 04:04:22;;;;;;;3.50;2.90;;;;;24.20;100554.00;;;;2059938;28;20215;-68
2023/07/08 04:05:22;;;;;;;3.00;2.70;;;;;24.10;100554.00;;;;2060546;28;20208;-68
2023/07/08 04:06:23;;;;;;;3.57;2.70;;;;;24.10;100553.00;;;;2057242;28;20210;-68
2023/07/08 04:07:23;;;;;;;3.53;2.83;;;;;24.20;100561.00;;;;2060147;28;20211;-68
2023/07/08 04:08:23;;;;;;;3.70;3.40;;;;;24.10;100553.00;;;;2049476;28;20624;-68
2023/07/08 04:09:24;;;;;;;3.27;2.97;;;;;24.10;100561.00;;;;2054272;28;20678;-68
2023/07/08 04:10:24;;;;;;;3.67;3.30;;;;;24.10;100558.00;;;;2059412;28;20234;-68
2023/07/08 04:11:25;;;;;;;3.80;3.30;;;;;24.10;100553.00;;;;2059527;28;20207;-68
2023/07/08 04:12:26;;;;;;;3.40;3.10;;;;;24.20;100560.00;;;;2059729;28;20313;-68
2023/07/08 04:13:27;;;;;;;3.75;3.15;;;;;24.20;100559.00;;;;2056795;28;20210;-68
2023/07/08 04:14:27;;;;;;;2.80;2.60;;;;;24.20;100559.00;;;;2068614;28;20226;-68
2023/07/08 04:15:28;;;;;;;3.37;2.90;;;;;24.10;100558.00;;;;2064375;28;20214;-68
2023/07/08 04:16:30;;;;;;;5.30;3.20;;;;;24.10;100564.00;;;;2066837;28;20219;-68
2023/07/08 04:17:30;;;;;;;3.40;3.10;;;;;24.10;100567.00;;;;2055570;28;20358;-68
2023/07/08 04:18:31;;;;;;;4.80;3.07;;;;;24.20;100570.00;;;;2035641;28;20243;-68
2023/07/08 04:19:31;;;;;;;3.60;3.27;;;;;24.20;100567.00;;;;2053382;28;20213;-68
2023/07/08 04:20:33;;;;;;;3.87;3.17;;;;;24.20;100570.00;;;;2060767;28;20351;-68
2023/07/08 04:21:33;;;;;;;4.07;3.67;;;;;24.10;100566.00;;;;2062489;28;20242;-68
2023/07/08 04:22:33;;;;;;;3.67;2.80;;;;;24.10;100576.00;;;;2067067;28;20963;-68
2023/07/08 04:23:34;;;;;;;2.97;2.73;;;;;24.10;100572.00;;;;2049610;28;20642;-68
2023/07/08 04:24:34;;;;;;;4.17;3.30;;;;;24.10;100575.00;;;;2057383;28;20302;-68
2023/07/08 04:25:34;;;;;;;3.00;2.70;;;;;24.20;100581.00;;;;2061005;28;20220;-68
2023/07/08 04:26:35;;;;;;;3.07;2.83;;;;;24.10;100583.00;;;;2065107;28;20230;-68
2023/07/08 04:27:35;;;;;;;3.47;3.17;;;;;24.10;100580.00;;;;2069721;28;20214;-68
2023/07/08 04:28:36;;;;;;;3.13;2.83;;;;;24.10;100579.00;;;;2052158;28;20212;-68
2023/07/08 04:29:36;;;;;;;4.10;3.30;;;;;24.10;100576.00;;;;2058402;28;20219;-68
2023/07/08 04:30:40;;;;;;;3.43;3.13;;;;;24.10;100580.00;;;;2061860;28;20218;-68
2023/07/08 04:31:41;;;;;;;3.10;2.80;;;;;24.10;100581.00;;;;2062803;28;20736;-68
2023/07/08 04:32:41;;;;;;;3.50;3.10;;;;;24.20;100578.00;;;;2057388;28;20230;-68
2023/07/08 04:33:41;;;;;;;4.70;3.37;;;;;24.10;100580.00;;;;2053924;28;20246;-68
2023/07/08 04:34:42;;;;;;;3.60;3.30;;;;;24.10;100576.00;;;;2058799;28;20262;-68
2023/07/08 04:35:42;;;;;;;3.23;2.93;;;;;24.10;100576.00;;;;2056768;28;20239;-68
2023/07/08 04:36:43;;;;;;;3.53;3.13;;;;;24.10;100579.00;;;;2056750;28;20223;-68
2023/07/08 04:37:44;;;;;;;3.10;2.80;;;;;24.10;100581.00;;;;2058433;28;20265;-68
2023/07/08 04:38:47;;;;;;;3.57;3.10;;;;;24.20;100580.00;;;;2053413;28;20223;-68
2023/07/08 04:39:47;;;;;;;3.90;3.05;;;;;24.20;100579.00;;;;2056750;28;20676;-68
2023/07/08 04:40:48;;;;;;;7.30;2.97;;;;;24.10;100587.00;;;;2061553;28;20219;-68
2023/07/08 04:41:49;;;;;;;5.07;3.30;;;;;24.20;100580.00;;;;2063445;28;20302;-68
2023/07/08 04:42:51;;;;;;;4.73;2.90;;;;;24.10;100589.00;;;;2062126;28;20215;-68
2023/07/08 04:43:53;;;;;;;3.20;2.90;;;;;24.10;100595.00;;;;2043818;28;20293;-68
2023/07/08 04:44:54;;;;;;;3.35;2.88;;;;;24.20;100590.00;;;;2056163;28;20212;-68
2023/07/08 04:45:54;;;;;;;2.93;2.63;;;;;24.10;100590.00;;;;2063795;28;20195;-68
2023/07/08 04:46:55;;;;;;;3.23;2.77;;;;;24.20;100583.00;;;;2064495;28;20454;-68
2023/07/08 04:47:56;;;;;;;3.97;2.85;;;;;24.20;100588.00;;;;2048654;28;20214;-68
2023/07/08 04:49:00;;;;;;;2.83;2.50;;;;;24.20;100591.00;;;;2062155;28;20266;-68
2023/07/08 04:50:00;;;;;;;2.85;2.65;;;;;24.20;100581.00;;;;2061272;28;20218;-68
2023/07/08 04:51:01;;;;;;;4.33;2.60;;;;;24.20;100586.00;;;;2056250;28;20228;-68
2023/07/08 04:52:01;;;;;;;3.33;3.03;;;;;24.20;100582.00;;;;2062207;28;20210;-68
2023/07/08 04:53:02;;;;;;;3.10;2.70;;;;;24.20;100581.00;;;;2053153;28;20235;-68
2023/07/08 04:54:02;;;;;;;3.40;3.03;;;;;24.20;100583.00;;;;2056203;28;20212;-68
2023/07/08 04:55:03;;;;;;;3.10;2.80;;;;;24.20;100582.00;;;;2061501;28;20222;-68
2023/07/08 04:56:03;;;;;;;3.33;3.03;;;;;24.20;100580.00;;;;2053267;28;20231;-68
2023/07/08 04:57:04;;;;;;;3.00;2.70;;;;;24.10;100576.00;;;;2060675;28;20245;-68
2023/07/08 04:58:04;;;;;;;2.80;2.50;;;;;24.20;100579.00;;;;2054384;28;20214;-69
2023/07/08 04:59:05;;;;;;;2.90;2.70;;;;;24.20;100582.00;;;;2058024;28;20672;-69
2023/07/08 05:00:10;;;;;;;3.08;2.78;;;;;24.20;100574.00;;;;2062272;28;20249;-69
2023/07/08 05:01:10;;;;;;;3.60;3.10;;;;;24.20;100581.00;;;;2054917;28;20227;-69
2023/07/08 05:02:10;;;;;;;3.00;2.50;;;;;24.20;100579.00;;;;2054636;28;20215;-69